createdAt,value
2022-11-19T00:01:25.061Z,6.30
2022-11-19T00:03:53.225Z,7.03
2022-11-19T00:06:25.433Z,6.43
2022-11-19T00:08:52.357Z,6.13
2022-11-19T00:11:42.183Z,5.70
2022-11-19T00:14:12.457Z,6.05
2022-11-19T00:16:40.453Z,4.90
2022-11-19T00:19:07.832Z,5.28
2022-11-19T00:21:34.665Z,4.90
2022-11-19T00:24:01.597Z,5.90
2022-11-19T00:26:28.469Z,5.55
2022-11-19T00:28:55.640Z,5.13
2022-11-19T00:31:22.711Z,5.35
2022-11-19T00:33:50.875Z,4.80
2022-11-19T00:36:18.070Z,5.60
2022-11-19T00:38:45.114Z,4.85
2022-11-19T00:41:12.198Z,5.30
2022-11-19T00:43:48.735Z,4.65
2022-11-19T00:46:21.845Z,4.90
2022-11-19T00:48:50.395Z,5.68
2022-11-19T00:51:18.509Z,5.20
2022-11-19T00:53:45.582Z,5.20
2022-11-19T00:56:15.986Z,4.38
2022-11-19T00:58:43.571Z,5.13
2022-11-19T01:01:12.377Z,4.75
2022-11-19T01:03:40.282Z,5.70
2022-11-19T01:06:08.870Z,4.70
2022-11-19T01:08:36.191Z,4.97
2022-11-19T01:11:12.376Z,5.28
2022-11-19T01:13:39.296Z,5.00
2022-11-19T01:16:10.605Z,4.20
2022-11-19T01:18:38.666Z,5.05
2022-11-19T01:21:07.019Z,5.32
2022-11-19T01:23:34.135Z,5.03
2022-11-19T01:26:01.925Z,4.45
2022-11-19T01:28:29.416Z,4.90
2022-11-19T01:30:56.639Z,5.30
2022-11-19T01:33:23.947Z,5.00
2022-11-19T01:36:01.881Z,4.88
2022-11-19T01:38:29.633Z,5.78
2022-11-19T01:40:57.859Z,4.70
2022-11-19T01:43:46.077Z,4.47
2022-11-19T01:46:15.874Z,5.10
2022-11-19T01:49:02.957Z,4.72
2022-11-19T01:51:49.941Z,5.03
2022-11-19T01:54:30.283Z,6.32
2022-11-19T01:57:02.191Z,4.28
2022-11-19T01:59:31.302Z,4.55
2022-11-19T02:01:58.303Z,5.25
2022-11-19T02:04:26.036Z,4.60
2022-11-19T02:06:54.200Z,3.97
2022-11-19T02:09:21.974Z,4.60
2022-11-19T02:11:54.728Z,4.72
2022-11-19T02:14:54.853Z,5.30
2022-11-19T02:17:46.934Z,4.88
2022-11-19T02:20:57.104Z,4.20
2022-11-19T02:23:46.216Z,5.32
2022-11-19T02:26:44.670Z,4.72
2022-11-19T02:29:30.214Z,4.03
2022-11-19T02:32:16.888Z,4.22
2022-11-19T02:34:55.128Z,3.92
2022-11-19T02:37:40.964Z,4.65
2022-11-19T02:40:15.639Z,4.57
2022-11-19T02:43:08.499Z,4.85
2022-11-19T02:45:39.981Z,4.82
2022-11-19T02:48:10.300Z,4.72
2022-11-19T02:50:45.334Z,4.70
2022-11-19T02:53:12.400Z,4.13
2022-11-19T02:55:40.118Z,3.45
2022-11-19T02:58:31.948Z,5.18
2022-11-19T03:01:19.553Z,3.92
2022-11-19T03:04:05.792Z,3.08
2022-11-19T03:25:56.557Z,6.85
2022-11-19T03:28:30.583Z,8.35
2022-11-19T03:31:00.429Z,7.85
2022-11-19T03:33:33.892Z,7.47
2022-11-19T03:36:24.361Z,6.22
2022-11-19T03:38:55.754Z,5.47
2022-11-19T03:41:24.628Z,4.70
2022-11-19T03:44:07.076Z,5.50
2022-11-19T03:46:37.286Z,5.35
2022-11-19T03:49:06.950Z,5.53
2022-11-19T03:52:00.017Z,5.70
2022-11-19T03:54:27.663Z,3.80
2022-11-19T03:56:55.763Z,3.60
2022-11-19T03:59:29.189Z,2.92
2022-11-19T04:02:01.649Z,3.30
2022-11-19T04:04:37.831Z,2.53
2022-11-19T04:07:08.927Z,2.20
2022-11-19T04:09:35.986Z,2.22
2022-11-19T04:12:03.456Z,1.38
2022-11-19T04:14:30.465Z,1.55
2022-11-19T04:16:57.494Z,1.73
2022-11-19T04:19:24.841Z,1.60
2022-11-19T04:21:51.986Z,1.58
2022-11-19T04:24:19.130Z,0.77
2022-11-19T04:26:45.866Z,1.40
2022-11-19T04:29:12.693Z,0.98
2022-11-19T04:31:39.566Z,0.85
2022-11-19T04:34:06.584Z,1.00
2022-11-19T04:36:34.226Z,1.17
2022-11-19T04:39:01.410Z,1.10
2022-11-19T04:41:28.507Z,1.13
2022-11-19T04:43:55.263Z,1.20
2022-11-19T04:46:22.167Z,1.10
2022-11-19T04:48:49.052Z,1.20
2022-11-19T04:51:15.994Z,0.98
2022-11-19T04:53:42.886Z,1.23
2022-11-19T04:56:09.809Z,1.35
2022-11-19T04:58:37.234Z,1.10
2022-11-19T05:01:04.380Z,1.00
2022-11-19T05:03:31.448Z,1.02
2022-11-19T05:05:58.375Z,1.00
2022-11-19T05:08:25.639Z,1.27
2022-11-19T05:10:52.680Z,0.70
2022-11-19T05:13:19.567Z,1.50
2022-11-19T05:15:46.772Z,1.23
2022-11-19T05:18:14.122Z,1.50
2022-11-19T05:20:40.911Z,1.35
2022-11-19T05:23:07.865Z,1.30
2022-11-19T05:25:34.809Z,1.23
2022-11-19T05:28:01.800Z,1.20
2022-11-19T05:30:28.653Z,1.30
2022-11-19T05:32:55.544Z,1.20
2022-11-19T05:35:22.683Z,1.30
2022-11-19T05:37:50.445Z,1.70
2022-11-19T05:40:18.427Z,1.23
2022-11-19T05:42:45.460Z,1.98
2022-11-19T05:45:13.044Z,1.90
2022-11-19T05:47:43.346Z,1.88
2022-11-19T05:50:12.778Z,1.50
2022-11-19T05:52:39.549Z,2.00
2022-11-19T05:55:06.746Z,1.77
2022-11-19T05:57:33.632Z,2.28
2022-11-19T06:00:00.486Z,3.17
2022-11-19T06:02:27.389Z,3.33
2022-11-19T06:04:54.462Z,2.40
2022-11-19T06:07:21.337Z,2.60
2022-11-19T06:09:48.312Z,8.73
2022-11-19T06:12:15.098Z,4.50
2022-11-19T06:14:42.166Z,3.25
2022-11-19T06:17:09.448Z,1.67
2022-11-19T06:19:36.292Z,1.75
2022-11-19T06:22:03.133Z,3.60
2022-11-19T06:24:30.097Z,2.00
2022-11-19T06:26:56.953Z,3.30
2022-11-19T06:29:23.890Z,4.68
2022-11-19T06:31:50.745Z,2.42
2022-11-19T06:34:17.694Z,3.00
2022-11-19T06:36:50.110Z,1.60
2022-11-19T06:39:17.658Z,3.05
2022-11-19T06:41:44.665Z,3.08
2022-11-19T06:44:11.550Z,2.65
2022-11-19T06:46:38.536Z,2.13
2022-11-19T06:49:05.983Z,2.92
2022-11-19T06:51:33.553Z,2.70
2022-11-19T06:54:00.535Z,10.27
2022-11-19T06:56:27.549Z,4.90
2022-11-19T06:58:57.533Z,2.58
2022-11-19T07:01:24.503Z,3.28
2022-11-19T07:03:51.371Z,2.65
2022-11-19T07:06:18.313Z,1.77
2022-11-19T07:08:45.317Z,2.20
2022-11-19T07:11:27.224Z,2.58
2022-11-19T07:13:57.913Z,2.17
2022-11-19T07:16:26.437Z,2.30
2022-11-19T07:18:53.312Z,1.85
2022-11-19T07:21:20.255Z,1.88
2022-11-19T07:23:47.142Z,2.40
2022-11-19T07:26:15.055Z,2.35
2022-11-19T07:28:42.106Z,1.60
2022-11-19T07:31:09.551Z,2.10
2022-11-19T07:33:39.166Z,2.97
2022-11-19T07:36:08.311Z,3.20
2022-11-19T07:38:37.170Z,3.20
2022-11-19T07:41:24.237Z,2.70
2022-11-19T07:43:51.631Z,4.03
2022-11-19T07:46:18.601Z,2.88
2022-11-19T07:48:45.544Z,2.33
2022-11-19T07:51:12.389Z,2.65
2022-11-19T07:53:39.214Z,2.80
2022-11-19T07:56:06.166Z,2.47
2022-11-19T07:58:33.104Z,3.47
2022-11-19T08:01:10.755Z,2.50
2022-11-19T08:03:37.621Z,2.47
2022-11-19T08:06:08.058Z,2.47
2022-11-19T08:08:34.871Z,2.45
2022-11-19T08:11:06.546Z,2.67
2022-11-19T08:13:34.189Z,2.40
2022-11-19T08:16:06.128Z,2.60
2022-11-19T08:18:33.233Z,3.00
2022-11-19T08:21:18.035Z,2.33
2022-11-19T08:23:44.878Z,2.75
2022-11-19T08:26:11.677Z,3.35
2022-11-19T08:28:38.530Z,2.70
2022-11-19T08:31:07.918Z,2.08
2022-11-19T08:33:35.365Z,2.13
2022-11-19T08:36:02.700Z,2.38
2022-11-19T08:38:33.312Z,2.40
2022-11-19T08:41:21.341Z,2.92
2022-11-19T08:43:48.484Z,1.92
2022-11-19T08:46:15.295Z,1.92
2022-11-19T08:48:42.132Z,2.42
2022-11-19T08:51:14.775Z,1.90
2022-11-19T08:53:41.638Z,2.47
2022-11-19T08:56:09.596Z,2.42
2022-11-19T08:58:37.731Z,2.20
2022-11-19T09:01:16.236Z,2.53
2022-11-19T09:03:43.904Z,2.53
2022-11-19T09:06:12.054Z,3.25
2022-11-19T09:08:39.704Z,2.60
2022-11-19T09:11:26.829Z,3.42
2022-11-19T09:13:53.682Z,2.60
2022-11-19T09:16:20.605Z,2.72
2022-11-19T09:18:47.394Z,2.45
2022-11-19T09:21:16.559Z,2.65
2022-11-19T09:23:43.508Z,2.70
2022-11-19T09:26:15.669Z,3.53
2022-11-19T09:28:43.429Z,3.33
2022-11-19T09:31:13.400Z,4.00
2022-11-19T09:33:42.335Z,2.72
2022-11-19T09:36:11.355Z,3.63
2022-11-19T09:38:40.199Z,3.42
2022-11-19T09:41:22.119Z,2.85
2022-11-19T09:44:07.365Z,3.25
2022-11-19T09:47:15.651Z,2.90
2022-11-19T09:50:03.126Z,3.08
2022-11-19T09:52:35.723Z,3.03
2022-11-19T09:55:03.491Z,3.72
2022-11-19T09:57:38.261Z,3.38
2022-11-19T10:00:06.636Z,2.95
2022-11-19T10:02:38.447Z,3.08
2022-11-19T10:05:05.723Z,2.90
2022-11-19T10:07:35.303Z,2.75
2022-11-19T10:10:02.117Z,2.47
2022-11-19T10:12:48.512Z,2.30
2022-11-19T10:15:28.653Z,2.90
2022-11-19T10:18:04.005Z,3.30
2022-11-19T10:21:09.690Z,2.85
2022-11-19T10:24:00.870Z,3.88
2022-11-19T10:26:35.508Z,2.95
2022-11-19T10:29:11.136Z,3.15
2022-11-19T10:31:43.910Z,3.00
2022-11-19T10:34:33.769Z,3.13
2022-11-19T10:37:07.989Z,2.65
2022-11-19T10:40:01.072Z,3.03
2022-11-19T10:42:45.161Z,3.50
2022-11-19T10:45:19.375Z,3.13
2022-11-19T10:48:12.565Z,2.55
2022-11-19T10:50:40.053Z,2.70
2022-11-19T10:53:27.324Z,2.67
2022-11-19T10:56:00.585Z,2.10
2022-11-19T10:58:38.273Z,2.00
2022-11-19T11:01:32.578Z,2.05
2022-11-19T11:04:23.763Z,2.17
2022-11-19T11:06:59.728Z,1.80
2022-11-19T11:09:41.456Z,1.90
2022-11-19T11:12:39.142Z,1.98
2022-11-19T11:15:15.672Z,2.00
2022-11-19T11:17:44.823Z,1.70
2022-11-19T11:20:17.524Z,3.28
2022-11-19T11:22:47.014Z,1.70
2022-11-19T11:25:27.243Z,2.42
2022-11-19T11:28:03.573Z,2.20
2022-11-19T11:30:30.447Z,2.25
2022-11-19T11:32:57.365Z,2.50
2022-11-19T11:35:38.548Z,2.83
2022-11-19T11:38:05.777Z,2.00
2022-11-19T11:40:32.776Z,2.42
2022-11-19T11:42:59.862Z,2.80
2022-11-19T11:45:34.120Z,2.55
2022-11-19T11:48:08.089Z,3.00
2022-11-19T11:50:37.261Z,5.03
2022-11-19T11:53:10.388Z,5.07
2022-11-19T11:55:38.773Z,4.97
2022-11-19T11:58:24.259Z,6.80
2022-11-19T12:01:15.437Z,5.15
2022-11-19T12:03:57.900Z,3.20
2022-11-19T12:06:29.297Z,3.20
2022-11-19T12:09:07.969Z,4.75
2022-11-19T12:12:23.839Z,4.90
2022-11-19T12:15:09.940Z,3.50
2022-11-19T12:17:57.468Z,4.22
2022-11-19T12:20:53.989Z,5.25
2022-11-19T12:23:42.599Z,2.88
2022-11-19T12:26:46.546Z,3.13
2022-11-19T12:32:42.246Z,3.25
2022-11-19T12:35:23.001Z,3.28
2022-11-19T12:38:07.734Z,3.42
2022-11-19T12:41:21.568Z,3.10
2022-11-19T12:43:58.702Z,3.33
2022-11-19T12:46:25.471Z,4.32
2022-11-19T12:48:55.346Z,5.57
2022-11-19T12:51:45.651Z,4.10
2022-11-19T12:54:35.539Z,3.05
2022-11-19T12:57:02.421Z,4.18
2022-11-19T12:59:50.543Z,2.90
2022-11-19T13:02:28.054Z,3.00
2022-11-19T13:05:01.522Z,3.60
2022-11-19T13:07:36.010Z,3.78
2022-11-19T13:10:12.050Z,3.38
2022-11-19T13:12:46.648Z,3.92
2022-11-19T13:15:43.576Z,3.17
2022-11-19T13:18:16.472Z,4.65
2022-11-19T13:20:55.902Z,3.53
2022-11-19T13:23:31.386Z,3.40
2022-11-19T13:26:06.230Z,3.22
2022-11-19T13:28:54.181Z,3.03
2022-11-19T13:31:29.936Z,3.00
2022-11-19T13:34:17.017Z,5.25
2022-11-19T13:36:53.894Z,2.80
2022-11-19T13:39:31.355Z,3.30
2022-11-19T13:42:19.498Z,2.97
2022-11-19T13:44:46.659Z,2.85
2022-11-19T13:47:31.121Z,2.65
2022-11-19T13:50:13.674Z,2.72
2022-11-19T13:53:05.375Z,3.78
2022-11-19T13:55:36.633Z,3.75
2022-11-19T13:58:11.866Z,3.80
2022-11-19T14:00:39.248Z,3.25
2022-11-19T14:03:07.432Z,4.07
2022-11-19T14:06:05.214Z,2.97
2022-11-19T14:08:47.010Z,3.92
2022-11-19T14:11:50.065Z,3.38
2022-11-19T14:14:57.797Z,4.53
2022-11-19T14:17:46.243Z,4.10
2022-11-19T14:20:54.417Z,4.80
2022-11-19T14:24:05.606Z,3.83
2022-11-19T14:26:41.704Z,3.78
2022-11-19T14:29:26.914Z,4.50
2022-11-19T14:32:03.180Z,3.78
2022-11-19T14:34:35.573Z,3.83
2022-11-19T14:37:11.085Z,2.97
2022-11-19T14:39:44.629Z,3.40
2022-11-19T14:42:18.448Z,2.97
2022-11-19T14:44:46.718Z,3.22
2022-11-19T14:47:22.445Z,3.63
2022-11-19T14:49:51.849Z,3.80
2022-11-19T14:52:31.677Z,3.58
2022-11-19T14:55:07.256Z,4.10
2022-11-19T14:57:42.478Z,3.38
2022-11-19T15:00:15.998Z,3.35
2022-11-19T15:02:50.382Z,4.15
2022-11-19T15:05:28.135Z,4.15
2022-11-19T15:08:16.397Z,4.00
2022-11-19T15:11:06.034Z,3.97
2022-11-19T15:28:20.649Z,5.18
2022-11-19T15:31:04.080Z,3.92
2022-11-19T15:33:49.244Z,5.38
2022-11-19T15:36:45.807Z,4.07
2022-11-19T15:39:26.613Z,3.95
2022-11-19T15:42:03.272Z,4.15
2022-11-19T15:44:57.537Z,4.13
2022-11-19T15:47:48.582Z,4.25
2022-11-19T15:50:24.666Z,4.32
2022-11-19T15:53:03.223Z,5.55
2022-11-19T15:55:31.404Z,4.00
2022-11-19T15:58:13.811Z,3.47
2022-11-19T16:00:50.077Z,3.72
2022-11-19T16:03:17.971Z,3.38
2022-11-19T16:06:00.941Z,3.10
2022-11-19T16:08:28.467Z,3.53
2022-11-19T16:11:20.333Z,3.70
2022-11-19T16:14:11.429Z,3.03
2022-11-19T16:16:57.472Z,3.58
2022-11-19T16:19:24.614Z,4.05
2022-11-19T16:21:56.711Z,4.75
2022-11-19T16:24:44.882Z,3.83
2022-11-19T16:27:18.978Z,5.43
2022-11-19T16:29:46.623Z,4.93
2022-11-19T16:32:22.654Z,4.97
2022-11-19T16:34:49.565Z,4.00
2022-11-19T16:37:20.754Z,5.30
2022-11-19T16:39:53.222Z,4.97
2022-11-19T16:42:26.569Z,4.30
2022-11-19T16:44:56.730Z,6.13
2022-11-19T16:47:33.000Z,3.88
2022-11-19T16:50:18.674Z,3.95
2022-11-19T16:52:45.512Z,4.03
2022-11-19T16:55:18.316Z,3.92
2022-11-19T16:57:50.790Z,3.97
2022-11-19T17:00:23.350Z,4.10
2022-11-19T17:02:51.740Z,4.00
2022-11-19T17:05:23.237Z,4.57
2022-11-19T17:07:52.494Z,4.43
2022-11-19T17:10:22.954Z,4.70
2022-11-19T17:12:59.861Z,4.15
2022-11-19T17:15:37.325Z,4.07
2022-11-19T17:18:10.292Z,3.95
2022-11-19T17:20:37.026Z,5.15
2022-11-19T17:23:14.061Z,4.20
2022-11-19T17:25:52.570Z,4.20
2022-11-19T17:28:41.237Z,4.30
2022-11-19T17:31:26.653Z,4.53
2022-11-19T17:34:14.096Z,3.35
2022-11-19T17:36:42.545Z,3.88
2022-11-19T17:39:12.022Z,3.40
2022-11-19T17:41:58.670Z,3.40
2022-11-19T17:44:39.229Z,3.75
2022-11-19T17:47:23.793Z,3.92
2022-11-19T17:49:52.142Z,4.18
2022-11-19T17:52:22.780Z,3.78
2022-11-19T17:54:50.850Z,3.42
2022-11-19T17:57:17.681Z,3.63
2022-11-19T17:59:44.559Z,4.05
2022-11-19T18:02:20.161Z,3.60
2022-11-19T18:04:48.207Z,3.55
2022-11-19T18:07:15.197Z,4.05
2022-11-19T18:09:42.507Z,4.30
2022-11-19T18:12:18.602Z,3.67
2022-11-19T18:14:46.453Z,3.45
2022-11-19T18:17:15.081Z,3.80
2022-11-19T18:19:42.188Z,3.25
2022-11-19T18:22:18.559Z,4.18
2022-11-19T18:24:50.367Z,3.97
2022-11-19T18:27:17.784Z,4.72
2022-11-19T18:29:45.194Z,4.65
2022-11-19T18:32:12.508Z,4.75
2022-11-19T18:34:39.308Z,5.45
2022-11-19T18:37:06.220Z,4.70
2022-11-19T18:39:32.989Z,3.42
2022-11-19T18:41:59.797Z,3.58
2022-11-19T18:44:35.526Z,3.50
2022-11-19T18:47:07.654Z,5.18
2022-11-19T18:49:35.230Z,4.05
2022-11-19T18:52:11.850Z,4.97
2022-11-19T18:54:38.708Z,3.70
2022-11-19T18:57:05.520Z,3.75
2022-11-19T18:59:32.337Z,4.05
2022-11-19T19:01:59.222Z,4.25
2022-11-19T19:04:26.458Z,4.43
2022-11-19T19:06:53.364Z,4.45
2022-11-19T19:09:20.942Z,4.18
2022-11-19T19:12:12.632Z,4.05
2022-11-19T19:14:40.839Z,4.70
2022-11-19T19:17:08.244Z,3.95
2022-11-19T19:19:35.709Z,4.22
2022-11-19T19:22:02.591Z,4.05
2022-11-19T19:24:30.579Z,3.80
2022-11-19T19:26:57.404Z,3.78
2022-11-19T19:29:24.571Z,3.90
2022-11-19T19:31:52.164Z,3.03
2022-11-19T19:34:19.726Z,3.50
2022-11-19T19:36:51.779Z,3.70
2022-11-19T19:39:20.464Z,3.40
2022-11-19T19:41:49.254Z,3.97
2022-11-19T19:44:16.681Z,3.63
2022-11-19T19:46:43.771Z,3.40
2022-11-19T19:49:10.631Z,4.00
2022-11-19T19:51:37.445Z,4.30
2022-11-19T19:54:04.328Z,2.90
2022-11-19T19:56:32.644Z,4.72
2022-11-19T19:59:02.680Z,3.78
2022-11-19T20:01:34.899Z,3.92
2022-11-19T20:04:11.301Z,4.05
2022-11-19T20:06:41.979Z,4.00
2022-11-19T20:09:09.765Z,3.58
2022-11-19T20:11:37.653Z,3.83
2022-11-19T20:14:05.057Z,4.50
2022-11-19T20:16:33.510Z,4.55
2022-11-19T20:19:02.072Z,2.83
2022-11-19T20:21:34.208Z,3.63
2022-11-19T20:24:07.174Z,3.40
2022-11-19T20:27:17.201Z,3.90
2022-11-19T20:29:57.735Z,3.50
2022-11-19T20:32:34.186Z,4.85
2022-11-19T20:35:02.883Z,3.87
2022-11-19T20:37:36.515Z,4.22
2022-11-19T20:40:13.993Z,3.50
2022-11-19T20:46:12.226Z,4.18
2022-11-19T20:48:42.866Z,3.53
2022-11-19T20:51:24.169Z,4.05
2022-11-19T20:53:54.819Z,3.97
2022-11-19T20:56:22.362Z,4.10
2022-11-19T20:58:49.688Z,4.00
2022-11-19T21:01:18.556Z,4.35
2022-11-19T21:03:47.260Z,4.97
2022-11-19T21:06:14.485Z,4.13
2022-11-19T21:08:44.541Z,3.47
2022-11-19T21:11:15.733Z,4.13
2022-11-19T21:13:48.790Z,4.78
2022-11-19T21:16:19.631Z,4.60
2022-11-19T21:18:47.057Z,4.88
2022-11-19T21:21:15.776Z,3.60
2022-11-19T21:23:43.319Z,5.22
2022-11-19T21:26:16.531Z,4.25
2022-11-19T21:28:47.682Z,5.13
2022-11-19T21:31:16.268Z,4.63
2022-11-19T21:33:43.649Z,4.30
2022-11-19T21:36:10.668Z,6.93
2022-11-19T21:38:37.493Z,4.22
2022-11-19T21:41:05.515Z,4.97
2022-11-19T21:43:32.612Z,4.97
2022-11-19T21:45:59.517Z,4.63
2022-11-19T21:48:27.062Z,4.53
2022-11-19T21:50:54.236Z,4.72
2022-11-19T21:53:21.381Z,4.80
2022-11-19T21:55:49.298Z,4.97
2022-11-19T21:58:16.775Z,5.30
2022-11-19T22:00:46.754Z,5.28
2022-11-19T22:03:14.343Z,4.93
2022-11-19T22:05:42.552Z,6.22
2022-11-19T22:08:09.407Z,5.20
2022-11-19T22:10:38.335Z,5.07
2022-11-19T22:13:08.266Z,5.35
2022-11-19T22:15:35.167Z,5.20
2022-11-19T22:18:02.051Z,4.55
2022-11-19T22:20:28.842Z,4.88
2022-11-19T22:22:57.133Z,6.00
2022-11-19T22:25:24.152Z,4.88
2022-11-19T22:27:50.923Z,4.35
2022-11-19T22:30:17.828Z,4.70
2022-11-19T22:32:44.751Z,5.07
2022-11-19T22:35:11.742Z,5.38
2022-11-19T22:37:38.537Z,5.15
2022-11-19T22:40:05.963Z,5.50
2022-11-19T22:42:32.814Z,4.68
2022-11-19T22:44:59.657Z,5.47
2022-11-19T22:47:26.442Z,5.47
2022-11-19T22:49:53.341Z,5.32
2022-11-19T22:52:20.260Z,5.20
2022-11-19T22:54:47.169Z,6.28
2022-11-19T22:57:14.081Z,4.93
2022-11-19T22:59:40.841Z,6.18
2022-11-19T23:02:07.738Z,5.70
2022-11-19T23:04:34.538Z,4.70
2022-11-19T23:07:01.634Z,5.10
2022-11-19T23:09:28.520Z,4.78
2022-11-19T23:12:13.796Z,6.15
2022-11-19T23:14:42.205Z,4.43
2022-11-19T23:17:09.171Z,4.25
2022-11-19T23:19:37.459Z,4.45
2022-11-19T23:22:04.352Z,3.88
2022-11-19T23:24:31.197Z,5.07
2022-11-19T23:26:57.996Z,4.07
2022-11-19T23:29:24.854Z,3.60
2022-11-19T23:31:51.891Z,3.92
2022-11-19T23:34:18.703Z,4.63
2022-11-19T23:36:45.553Z,4.80
2022-11-19T23:39:17.182Z,4.50
2022-11-19T23:41:44.773Z,4.18
2022-11-19T23:44:11.658Z,4.32
2022-11-19T23:46:38.944Z,5.32
2022-11-19T23:49:06.244Z,4.38
2022-11-19T23:51:36.130Z,4.80
2022-11-19T23:54:03.554Z,4.30
2022-11-19T23:56:32.792Z,4.28
2022-11-19T23:59:01.649Z,5.10
